Latest Weather Observations for Gosford

IDN60801

Issued at 2:02 am EST Wednesday 2 September 2015 (issued every 30 minutes, with the page automatically refreshed every 10 minutes)

About weather observations | Map of weather stations | Latest weather observations for NSW | Other Formats
Station Details ID: 061425 Name: GOSFORD AWS Lat: -33.44 Lon: 151.36 Height: 7.0 m
Data from the previous 72 hours. | See also: Recent months at Gosford
Date/Time
EST
Temp
°C
App
Temp
°C
Dew
Point
Rel
Hum
%
Delta-T
°C
Wind Press
QNH
hPa
Press
MSL
hPa
Rain
since 9 am
mm
Dir
 
Spd
km/h
Gust
km/h
Spd
kts
Gust
kts
02/02:00am 6.0 4.9 5.3 95 0.3 CALM 0 0 0 0 - - 0.0
02/01:30am 6.6 5.7 6.0 96 0.3 CALM 0 0 0 0 - - 0.0
02/01:00am 6.5 5.6 5.9 96 0.3 CALM 0 0 0 0 - - 0.0
02/12:30am 6.5 5.5 5.8 95 0.3 CALM 0 0 0 0 - - 0.0
02/12:00am 6.9 6.0 6.2 95 0.3 CALM 0 0 0 0 - - 0.0
 
Date/Time
EST
Temp
°C
App
Temp
°C
Dew
Point
Rel
Hum
%
Delta-T
°C
Wind Press
QNH
hPa
Press
MSL
hPa
Rain
since 9 am
mm
Dir
 
Spd
km/h
Gust
km/h
Spd
kts
Gust
kts
01/11:30pm 6.5 5.5 5.5 93 0.4 CALM 0 0 0 0 - - 0.0
01/11:00pm 7.8 7.1 7.1 95 0.3 CALM 0 4 0 2 - - 0.0
01/10:30pm 7.3 6.4 6.2 93 0.5 CALM 0 4 0 2 - - 0.0
01/10:00pm 8.2 6.7 7.0 92 0.6 NNW 4 6 2 3 - - 0.0
01/09:30pm 7.9 7.1 6.7 92 0.6 CALM 0 2 0 1 - - 0.0
01/09:00pm 8.0 7.2 6.3 89 0.8 CALM 0 0 0 0 - - 0.0
01/08:30pm 8.6 7.8 6.6 87 0.9 CALM 0 0 0 0 - - 0.0
01/08:00pm 9.4 8.7 7.0 85 1.1 CALM 0 0 0 0 - - 0.0
01/07:30pm 9.7 9.0 7.0 83 1.3 CALM 0 0 0 0 - - 0.0
01/07:00pm 10.5 9.5 7.4 81 1.5 E 2 6 1 3 - - 0.0
01/06:30pm 11.6 10.6 7.3 75 2.1 NNE 2 2 1 1 - - 0.0
01/06:00pm 12.7 11.2 7.0 68 2.7 N 4 6 2 3 - - 0.0
01/05:30pm 14.1 13.0 6.9 62 3.5 E 2 4 1 2 - - 0.0
01/05:00pm 15.3 13.4 6.6 56 4.2 ESE 6 9 3 5 - - 0.0
01/04:30pm 16.0 13.5 6.7 54 4.6 E 9 17 5 9 - - 0.0
01/04:00pm 16.7 13.9 5.3 47 5.5 SE 9 13 5 7 - - 0.0
01/03:30pm 17.3 14.4 4.9 44 5.9 SE 9 17 5 9 - - 0.0
01/03:00pm 18.2 15.4 2.1 34 7.3 SSE 6 9 3 5 - - 0.0
01/02:30pm 18.4 15.4 1.9 33 7.5 S 7 11 4 6 - - 0.0
01/02:00pm 18.1 14.9 0.7 31 7.7 S 7 13 4 7 - - 0.0
01/01:30pm 17.6 14.3 2.4 36 6.9 S 9 17 5 9 - - 0.0
01/01:00pm 17.3 14.2 1.3 34 7.1 SSW 7 13 4 7 - - 0.0
01/12:30pm 16.8 13.0 1.7 36 6.7 SW 11 19 6 10 - - 0.0
01/12:00pm 17.0 13.3 -0.2 31 7.4 SW 9 19 5 10 - - 0.0
01/11:30am 16.5 12.9 3.2 41 6.1 SSW 11 19 6 10 - - 0.0
01/11:00am 16.2 13.2 4.3 45 5.6 W 9 22 5 12 - - 0.0
01/10:30am 15.2 10.9 3.4 45 5.4 WNW 15 22 8 12 - - 0.0
01/10:00am 14.6 10.4 3.7 48 5.0 W 15 22 8 12 - - 0.0
01/09:30am 14.3 11.1 4.9 53 4.4 W 11 20 6 11 - - 0.0
01/09:00am 13.2 9.9 4.6 56 3.9 W 11 15 6 8 - - 0.0
01/08:30am 12.1 8.6 5.5 64 3.1 W 13 17 7 9 - - 0.0
01/08:00am 11.1 7.9 5.0 66 2.8 W 11 15 6 8 - - 0.0
01/07:30am 10.4 7.2 5.0 69 2.4 W 11 17 6 9 - - 0.0
01/07:00am 7.8 6.0 5.4 85 1.1 WNW 4 7 2 4 - - 0.0
01/06:30am 6.8 4.8 4.6 86 1.0 W 4 7 2 4 - - 0.0
01/06:00am 7.0 5.1 4.8 86 1.0 WNW 4 6 2 3 - - 0.0
01/05:30am 7.4 4.5 4.7 83 1.2 W 9 11 5 6 - - 0.0
01/05:00am 8.9 6.7 5.5 79 1.5 W 6 9 3 5 - - 0.0
01/04:30am 8.5 6.4 5.8 83 1.2 WSW 6 6 3 3 - - 0.0
01/04:00am 8.7 5.7 6.2 84 1.1 W 11 13 6 7 - - 0.0
01/03:30am 7.0 4.6 5.3 89 0.8 WNW 7 7 4 4 - - 0.0
01/03:00am 7.9 7.0 6.0 88 0.9 CALM 0 0 0 0 - - 0.0
01/02:30am 8.8 6.9 6.6 86 1.0 WNW 6 11 3 6 - - 0.0
01/02:00am 9.9 7.5 7.2 83 1.3 WNW 9 13 5 7 - - 0.0
01/01:30am 8.6 6.3 7.4 92 0.6 W 9 13 5 7 - - 0.0
01/01:00am 8.0 7.4 7.2 95 0.4 CALM 0 0 0 0 - - 0.0
01/12:30am 8.1 7.5 7.2 94 0.4 CALM 0 0 0 0 - - 0.0
01/12:00am 8.4 7.8 7.5 94 0.4 CALM 0 0 0 0 - - 0.0
 
Date/Time
EST
Temp
°C
App
Temp
°C
Dew
Point
Rel
Hum
%
Delta-T
°C
Wind Press
QNH
hPa
Press
MSL
hPa
Rain
since 9 am
mm
Dir
 
Spd
km/h
Gust
km/h
Spd
kts
Gust
kts
31/11:30pm 8.5 7.9 7.3 92 0.6 CALM 0 0 0 0 - - 0.0
31/11:00pm 8.5 7.9 7.3 92 0.6 CALM 0 0 0 0 - - 0.0
31/10:30pm 9.1 8.6 7.7 91 0.7 CALM 0 0 0 0 - - 0.0
31/10:00pm 9.7 9.3 8.1 90 0.8 CALM 0 0 0 0 - - 0.0
31/09:30pm 10.1 9.7 8.4 89 0.8 CALM 0 0 0 0 - - 0.0
31/09:00pm 10.0 9.6 8.1 88 0.9 CALM 0 0 0 0 - - 0.0
31/08:30pm 10.1 9.7 8.4 89 0.8 CALM 0 0 0 0 - - 0.0
31/08:00pm 10.7 10.3 8.3 85 1.2 CALM 0 0 0 0 - - 0.0
31/07:30pm 11.1 10.7 8.3 83 1.4 CALM 0 0 0 0 - - 0.0
31/07:00pm 11.8 11.5 8.5 80 1.6 CALM 0 0 0 0 - - 0.0
31/06:30pm 12.1 11.7 8.2 77 1.9 CALM 0 6 0 3 - - 0.0
31/06:00pm 13.4 12.6 8.0 70 2.7 NNE 2 6 1 3 - - 0.0
31/05:30pm 14.3 13.8 7.8 65 3.2 CALM 0 2 0 1 - - 0.0
31/05:00pm 15.3 13.6 7.6 60 3.8 SSE 6 11 3 6 - - 0.0
31/04:30pm 15.5 13.6 7.5 59 4.0 SSE 7 17 4 9 - - 0.0
31/04:00pm 15.6 13.3 7.6 59 4.0 SSE 9 17 5 9 - - 0.0
31/03:30pm 16.8 15.1 8.2 57 4.4 SSE 7 11 4 6 - - 0.0
31/03:00pm 17.0 14.7 7.6 54 4.7 SE 9 20 5 11 - - 0.0
31/02:30pm 17.8 15.6 6.3 47 5.7 S 7 11 4 6 - - 0.0
31/02:00pm 17.7 15.5 6.3 47 5.6 S 7 11 4 6 - - 0.0
31/01:30pm 18.0 15.5 4.9 42 6.3 S 7 11 4 6 - - 0.0
31/01:00pm 17.8 15.3 4.7 42 6.2 SW 7 13 4 7 - - 0.0
31/12:30pm 17.8 15.6 6.0 46 5.8 SSW 7 17 4 9 - - 0.0
31/12:00pm 17.4 13.9 5.4 45 5.8 SW 13 24 7 13 - - 0.0
31/11:30am 16.9 13.9 5.8 48 5.4 SSW 11 19 6 10 - - 0.0
31/11:00am 16.1 13.0 5.4 49 5.1 SW 11 17 6 9 - - 0.0
31/10:30am 15.6 11.9 4.6 48 5.1 SSW 13 17 7 9 - - 0.0
31/10:00am 15.4 12.2 5.0 50 4.9 SW 11 19 6 10 - - 0.0
31/09:30am 14.7 11.0 4.7 51 4.7 SW 13 19 7 10 - - 0.0
31/09:00am 14.3 10.7 4.9 53 4.4 SW 13 22 7 12 - - 0.0
31/08:30am 13.7 10.5 5.1 56 4.0 SW 11 19 6 10 - - 0.0
31/08:00am 13.2 10.6 5.9 61 3.4 SW 9 17 5 9 - - 0.0
31/07:30am 12.4 9.4 6.0 65 3.0 SW 11 19 6 10 - - 0.0
31/07:00am 10.5 8.4 5.9 73 2.1 WNW 6 9 3 5 - - 0.0
31/06:30am 9.9 8.2 5.9 76 1.8 WNW 4 7 2 4 - - 0.0
31/06:00am 9.5 7.8 5.7 77 1.7 WNW 4 6 2 3 - - 0.0
31/05:30am 10.0 8.2 5.6 74 2.0 W 4 6 2 3 - - 0.0
31/05:00am 10.7 8.4 5.0 68 2.6 WNW 6 11 3 6 - - 0.0
31/04:30am 12.0 8.9 5.6 65 3.0 SW 11 19 6 10 - - 0.0
31/04:00am 11.2 9.3 6.7 74 2.1 WSW 6 17 3 9 - - 0.0
31/03:30am 10.6 9.4 6.6 76 1.9 W 2 6 1 3 - - 0.0
31/03:00am 10.7 9.2 6.6 76 1.9 W 4 6 2 3 - - 0.0
31/02:30am 11.1 9.2 6.8 75 2.0 WNW 6 9 3 5 - - 0.0
31/02:00am 11.2 9.3 6.9 75 2.0 WNW 6 9 3 5 - - 0.0
31/01:30am 10.9 8.8 6.8 76 1.9 WNW 7 11 4 6 - - 0.0
31/01:00am 11.0 9.0 7.1 77 1.9 WNW 7 13 4 7 - - 0.0
31/12:30am 11.4 9.1 7.3 76 2.0 WNW 9 15 5 8 - - 0.0
31/12:00am 11.7 9.0 7.4 75 2.1 WNW 11 15 6 8 - - 0.0
 
Date/Time
EST
Temp
°C
App
Temp
°C
Dew
Point
Rel
Hum
%
Delta-T
°C
Wind Press
QNH
hPa
Press
MSL
hPa
Rain
since 9 am
mm
Dir
 
Spd
km/h
Gust
km/h
Spd
kts
Gust
kts
30/11:30pm 11.8 9.9 7.5 75 2.1 WNW 7 13 4 7 - - 0.0
30/11:00pm 12.6 10.4 7.9 73 2.3 W 9 13 5 7 - - 0.0
30/10:30pm 12.6 10.9 8.3 75 2.1 WSW 7 13 4 7 - - 0.0
30/10:00pm 10.8 9.9 7.7 81 1.5 W 2 6 1 3 - - 0.0
30/09:30pm 10.6 10.1 7.7 82 1.4 CALM 0 0 0 0 - - 0.0
30/09:00pm 11.0 10.5 7.7 80 1.6 CALM 0 2 0 1 - - 0.0
30/08:30pm 12.0 11.1 7.7 75 2.1 NNW 2 4 1 2 - - 0.0
30/08:00pm 12.7 11.4 7.8 72 2.4 NW 4 6 2 3 - - 0.0
30/07:30pm 13.2 12.4 8.3 72 2.4 WNW 2 4 1 2 - - 0.0
30/07:00pm 14.1 12.4 7.6 65 3.2 SW 6 9 3 5 - - 0.0
30/06:30pm 14.5 12.3 8.0 65 3.2 SSW 9 13 5 7 - - 0.0
30/06:00pm 14.7 12.2 8.4 66 3.2 S 11 19 6 10 - - 0.0
30/05:30pm 14.9 12.0 8.2 64 3.4 S 13 24 7 13 - - 0.0
30/05:00pm 15.4 12.4 7.9 61 3.8 S 13 20 7 11 - - 0.0
30/04:30pm 15.7 12.8 8.0 60 3.9 S 13 24 7 13 - - 0.0
30/04:00pm 15.7 12.3 7.5 58 4.1 SSE 15 26 8 14 - - 0.0
30/03:30pm 16.0 12.6 7.5 57 4.2 S 15 22 8 12 - - 0.0
30/03:00pm 16.1 12.6 7.3 56 4.4 SSE 15 20 8 11 - - 0.0
30/02:30pm 16.6 13.9 7.3 54 4.6 S 11 19 6 10 - - 0.0
30/02:00pm 16.5 13.6 6.6 52 4.9 S 11 19 6 10 - - 0.0
30/01:30pm 16.7 14.1 5.9 49 5.2 S 9 19 5 10 - - 0.0
30/01:00pm 16.5 14.3 5.2 47 5.4 S 6 9 3 5 - - 0.0
30/12:30pm 16.2 13.9 4.9 47 5.3 SSW 6 11 3 6 - - 0.0
30/12:00pm 16.3 14.0 5.0 47 5.4 SW 6 11 3 6 - - 0.0
30/11:30am 15.7 13.2 5.0 49 5.1 SW 7 13 4 7 - - 0.0
30/11:00am 15.3 12.5 5.2 51 4.8 SW 9 15 5 8 - - 0.0
30/10:30am 14.6 11.8 5.1 53 4.5 WSW 9 17 5 9 - - 0.0
30/10:00am 13.9 11.0 4.5 53 4.3 SW 9 17 5 9 - - 0.0
30/09:30am 13.2 10.3 4.6 56 3.9 SW 9 17 5 9 - - 0.0
30/09:00am 12.4 9.1 4.4 58 3.6 WSW 11 17 6 9 - - 0.0
30/08:30am 11.6 7.8 4.1 60 3.4 WSW 13 19 7 10 - - 0.0
30/08:00am 10.7 7.8 4.6 66 2.7 W 9 17 5 9 - - 0.0
30/07:30am 9.7 6.6 3.7 66 2.6 W 9 13 5 7 - - 0.0
30/07:00am 8.8 6.0 3.2 68 2.4 W 7 13 4 7 - - 0.0
30/06:30am 7.2 4.4 3.1 75 1.7 W 7 9 4 5 - - 0.0
30/06:00am 7.7 4.8 2.8 71 2.1 W 7 13 4 7 - - 0.0
30/05:30am 7.8 5.1 2.7 70 2.1 W 6 9 3 5 - - 0.0
30/05:00am 8.1 5.5 3.0 70 2.2 W 6 9 3 5 - - 0.0
30/04:30am 8.3 5.5 3.0 69 2.2 W 7 13 4 7 - - 0.0
30/04:00am 8.4 5.6 3.1 69 2.3 W 7 13 4 7 - - 0.0
30/03:30am 8.5 5.9 3.1 69 2.3 WNW 6 13 3 7 - - 0.0
30/03:00am 7.6 5.5 3.8 77 1.6 WNW 4 6 2 3 - - 0.0
30/02:30am 8.8 6.3 3.6 70 2.2 W 6 7 3 4 - - 0.0

Other Formats:

Comma delimited format used in spreadsheet applications
http://www.bom.gov.au/fwo/IDN60801/IDN60801.94782.axf

JavaScript Object Notation format (JSON) in row-major order
http://www.bom.gov.au/fwo/IDN60801/IDN60801.94782.json